sensor_id;sensor_type;location;lat;lon;timestamp;pressure;altitude;pressure_sealevel;temperature
65290;BMP180;51893;59.754;10.110;2022-10-26T00:01:33;100847.80;;;7.10
65290;BMP180;51893;59.754;10.110;2022-10-26T00:04:01;100851.00;;;7.10
65290;BMP180;51893;59.754;10.110;2022-10-26T00:06:31;100853.40;;;7.00
65290;BMP180;51893;59.754;10.110;2022-10-26T00:08:59;100858.20;;;6.90
65290;BMP180;51893;59.754;10.110;2022-10-26T00:11:31;100864.20;;;6.84
65290;BMP180;51893;59.754;10.110;2022-10-26T00:14:01;100865.20;;;6.80
65290;BMP180;51893;59.754;10.110;2022-10-26T00:16:30;100858.60;;;6.70
65290;BMP180;51893;59.754;10.110;2022-10-26T00:19:00;100859.40;;;6.70
65290;BMP180;51893;59.754;10.110;2022-10-26T00:21:28;100867.00;;;6.70
65290;BMP180;51893;59.754;10.110;2022-10-26T00:23:59;100871.40;;;6.70
65290;BMP180;51893;59.754;10.110;2022-10-26T00:26:26;100876.60;;;6.70
65290;BMP180;51893;59.754;10.110;2022-10-26T00:28:55;100875.00;;;6.70
65290;BMP180;51893;59.754;10.110;2022-10-26T00:31:25;100872.40;;;6.80
65290;BMP180;51893;59.754;10.110;2022-10-26T00:33:54;100867.00;;;6.80
65290;BMP180;51893;59.754;10.110;2022-10-26T00:36:25;100873.20;;;6.90
65290;BMP180;51893;59.754;10.110;2022-10-26T00:38:56;100868.80;;;6.98
65290;BMP180;51893;59.754;10.110;2022-10-26T00:41:30;100875.40;;;6.96
65290;BMP180;51893;59.754;10.110;2022-10-26T00:43:59;100879.00;;;6.90
65290;BMP180;51893;59.754;10.110;2022-10-26T00:46:36;100885.80;;;6.80
65290;BMP180;51893;59.754;10.110;2022-10-26T00:49:15;100895.20;;;6.74
65290;BMP180;51893;59.754;10.110;2022-10-26T00:51:51;100901.00;;;6.70
65290;BMP180;51893;59.754;10.110;2022-10-26T00:54:20;100905.80;;;6.70
65290;BMP180;51893;59.754;10.110;2022-10-26T00:56:51;100904.00;;;6.70
65290;BMP180;51893;59.754;10.110;2022-10-26T00:59:24;100902.00;;;6.60
65290;BMP180;51893;59.754;10.110;2022-10-26T01:01:54;100902.60;;;6.60
65290;BMP180;51893;59.754;10.110;2022-10-26T01:04:23;100909.80;;;6.60
65290;BMP180;51893;59.754;10.110;2022-10-26T01:06:52;100907.60;;;6.70
65290;BMP180;51893;59.754;10.110;2022-10-26T01:09:24;100912.00;;;6.70
65290;BMP180;51893;59.754;10.110;2022-10-26T01:11:53;100915.60;;;6.72
65290;BMP180;51893;59.754;10.110;2022-10-26T01:14:24;100915.20;;;6.80
65290;BMP180;51893;59.754;10.110;2022-10-26T01:20:43;100926.20;;;6.80
65290;BMP180;51893;59.754;10.110;2022-10-26T01:24:11;100926.00;;;6.80
65290;BMP180;51893;59.754;10.110;2022-10-26T01:39:04;100910.40;;;6.74
65290;BMP180;51893;59.754;10.110;2022-10-26T01:41:49;100912.20;;;6.70
65290;BMP180;51893;59.754;10.110;2022-10-26T01:44:39;100911.40;;;6.74
65290;BMP180;51893;59.754;10.110;2022-10-26T01:47:13;100907.60;;;6.78
65290;BMP180;51893;59.754;10.110;2022-10-26T01:49:52;100911.20;;;6.80
65290;BMP180;51893;59.754;10.110;2022-10-26T01:52:22;100917.80;;;6.80
65290;BMP180;51893;59.754;10.110;2022-10-26T01:55:01;100913.80;;;6.80
65290;BMP180;51893;59.754;10.110;2022-10-26T01:57:36;100912.60;;;6.80
65290;BMP180;51893;59.754;10.110;2022-10-26T02:00:08;100912.60;;;6.80
65290;BMP180;51893;59.754;10.110;2022-10-26T02:03:03;100914.40;;;6.88
65290;BMP180;51893;59.754;10.110;2022-10-26T02:06:09;100920.40;;;6.80
65290;BMP180;51893;59.754;10.110;2022-10-26T02:11:52;100927.60;;;6.76
65290;BMP180;51893;59.754;10.110;2022-10-26T02:14:47;100931.20;;;6.76
65290;BMP180;51893;59.754;10.110;2022-10-26T02:17:59;100929.00;;;6.70
65290;BMP180;51893;59.754;10.110;2022-10-26T02:20:39;100927.80;;;6.68
65290;BMP180;51893;59.754;10.110;2022-10-26T02:23:12;100935.60;;;6.60
65290;BMP180;51893;59.754;10.110;2022-10-26T02:25:49;100934.00;;;6.60
65290;BMP180;51893;59.754;10.110;2022-10-26T02:28:29;100939.60;;;6.60
65290;BMP180;51893;59.754;10.110;2022-10-26T02:31:06;100946.80;;;6.60
65290;BMP180;51893;59.754;10.110;2022-10-26T02:33:39;100952.80;;;6.60
65290;BMP180;51893;59.754;10.110;2022-10-26T02:36:12;100955.60;;;6.50
65290;BMP180;51893;59.754;10.110;2022-10-26T02:38:46;100951.00;;;6.50
65290;BMP180;51893;59.754;10.110;2022-10-26T02:41:19;100947.80;;;6.50
65290;BMP180;51893;59.754;10.110;2022-10-26T02:44:15;100939.80;;;6.40
65290;BMP180;51893;59.754;10.110;2022-10-26T02:46:46;100943.00;;;6.40
65290;BMP180;51893;59.754;10.110;2022-10-26T02:49:20;100947.00;;;6.40
65290;BMP180;51893;59.754;10.110;2022-10-26T02:52:00;100952.20;;;6.40
65290;BMP180;51893;59.754;10.110;2022-10-26T02:57:33;100951.60;;;6.40
65290;BMP180;51893;59.754;10.110;2022-10-26T03:00:14;100960.20;;;6.40
65290;BMP180;51893;59.754;10.110;2022-10-26T03:02:51;100966.00;;;6.40
65290;BMP180;51893;59.754;10.110;2022-10-26T03:05:31;100967.60;;;6.50
65290;BMP180;51893;59.754;10.110;2022-10-26T03:07:59;100973.00;;;6.50
65290;BMP180;51893;59.754;10.110;2022-10-26T03:10:31;100976.40;;;6.50
65290;BMP180;51893;59.754;10.110;2022-10-26T03:13:03;100972.40;;;6.50
65290;BMP180;51893;59.754;10.110;2022-10-26T03:15:37;100972.00;;;6.58
65290;BMP180;51893;59.754;10.110;2022-10-26T03:18:05;100971.80;;;6.50
65290;BMP180;51893;59.754;10.110;2022-10-26T03:20:34;100970.40;;;6.50
65290;BMP180;51893;59.754;10.110;2022-10-26T03:23:04;100970.60;;;6.48
65290;BMP180;51893;59.754;10.110;2022-10-26T03:25:35;100975.20;;;6.40
65290;BMP180;51893;59.754;10.110;2022-10-26T03:28:03;100979.00;;;6.40
65290;BMP180;51893;59.754;10.110;2022-10-26T03:30:33;100983.20;;;6.48
65290;BMP180;51893;59.754;10.110;2022-10-26T03:33:01;100988.20;;;6.50
65290;BMP180;51893;59.754;10.110;2022-10-26T03:35:29;100994.80;;;6.50
65290;BMP180;51893;59.754;10.110;2022-10-26T03:37:57;100996.80;;;6.40
65290;BMP180;51893;59.754;10.110;2022-10-26T03:40:25;100997.60;;;6.40
65290;BMP180;51893;59.754;10.110;2022-10-26T03:42:54;100998.40;;;6.40
65290;BMP180;51893;59.754;10.110;2022-10-26T03:45:22;100998.00;;;6.40
65290;BMP180;51893;59.754;10.110;2022-10-26T03:47:52;100983.20;;;6.50
65290;BMP180;51893;59.754;10.110;2022-10-26T03:50:21;100987.20;;;6.50
65290;BMP180;51893;59.754;10.110;2022-10-26T03:52:56;100984.40;;;6.48
65290;BMP180;51893;59.754;10.110;2022-10-26T03:55:27;100983.80;;;6.42
65290;BMP180;51893;59.754;10.110;2022-10-26T03:57:57;100986.80;;;6.40
65290;BMP180;51893;59.754;10.110;2022-10-26T04:00:25;100984.20;;;6.38
65290;BMP180;51893;59.754;10.110;2022-10-26T04:02:59;100981.20;;;6.34
65290;BMP180;51893;59.754;10.110;2022-10-26T04:05:28;100980.20;;;6.40
65290;BMP180;51893;59.754;10.110;2022-10-26T04:08:01;100990.60;;;6.40
65290;BMP180;51893;59.754;10.110;2022-10-26T04:10:31;100999.40;;;6.40
65290;BMP180;51893;59.754;10.110;2022-10-26T04:13:00;100998.80;;;6.40
65290;BMP180;51893;59.754;10.110;2022-10-26T04:15:30;101000.00;;;6.40
65290;BMP180;51893;59.754;10.110;2022-10-26T04:18:01;101002.60;;;6.40
65290;BMP180;51893;59.754;10.110;2022-10-26T04:20:32;101008.60;;;6.40
65290;BMP180;51893;59.754;10.110;2022-10-26T04:23:07;101006.80;;;6.40
65290;BMP180;51893;59.754;10.110;2022-10-26T04:25:39;101007.40;;;6.40
65290;BMP180;51893;59.754;10.110;2022-10-26T04:28:08;101010.60;;;6.30
65290;BMP180;51893;59.754;10.110;2022-10-26T04:30:37;101009.20;;;6.30
65290;BMP180;51893;59.754;10.110;2022-10-26T04:33:06;101007.00;;;6.30
65290;BMP180;51893;59.754;10.110;2022-10-26T04:35:35;101006.60;;;6.30
65290;BMP180;51893;59.754;10.110;2022-10-26T04:38:05;101000.20;;;6.30
65290;BMP180;51893;59.754;10.110;2022-10-26T04:40:36;101000.80;;;6.30
65290;BMP180;51893;59.754;10.110;2022-10-26T04:43:04;101002.40;;;6.30
65290;BMP180;51893;59.754;10.110;2022-10-26T04:45:32;101003.80;;;6.30
65290;BMP180;51893;59.754;10.110;2022-10-26T04:48:04;101007.60;;;6.30
65290;BMP180;51893;59.754;10.110;2022-10-26T04:50:36;101006.20;;;6.30
65290;BMP180;51893;59.754;10.110;2022-10-26T04:53:08;101007.80;;;6.30
65290;BMP180;51893;59.754;10.110;2022-10-26T04:55:37;101011.20;;;6.30
65290;BMP180;51893;59.754;10.110;2022-10-26T04:58:05;101013.40;;;6.30
65290;BMP180;51893;59.754;10.110;2022-10-26T05:00:35;101015.60;;;6.30
65290;BMP180;51893;59.754;10.110;2022-10-26T05:03:05;101016.40;;;6.30
65290;BMP180;51893;59.754;10.110;2022-10-26T05:05:36;101018.60;;;6.20
65290;BMP180;51893;59.754;10.110;2022-10-26T05:08:10;101024.00;;;6.18
65290;BMP180;51893;59.754;10.110;2022-10-26T05:10:41;101025.60;;;6.20
65290;BMP180;51893;59.754;10.110;2022-10-26T05:13:09;101029.60;;;6.12
65290;BMP180;51893;59.754;10.110;2022-10-26T05:15:37;101030.40;;;6.10
65290;BMP180;51893;59.754;10.110;2022-10-26T05:18:08;101034.60;;;6.06
65290;BMP180;51893;59.754;10.110;2022-10-26T05:20:37;101039.00;;;6.10
65290;BMP180;51893;59.754;10.110;2022-10-26T05:23:10;101043.60;;;6.10
65290;BMP180;51893;59.754;10.110;2022-10-26T05:25:45;101043.20;;;6.10
65290;BMP180;51893;59.754;10.110;2022-10-26T05:28:19;101039.80;;;6.10
65290;BMP180;51893;59.754;10.110;2022-10-26T05:30:48;101044.60;;;6.10
65290;BMP180;51893;59.754;10.110;2022-10-26T05:33:18;101044.80;;;6.10
65290;BMP180;51893;59.754;10.110;2022-10-26T05:35:46;101045.40;;;6.20
65290;BMP180;51893;59.754;10.110;2022-10-26T05:38:16;101050.20;;;6.30
65290;BMP180;51893;59.754;10.110;2022-10-26T05:40:52;101051.00;;;6.30
65290;BMP180;51893;59.754;10.110;2022-10-26T05:43:24;101052.60;;;6.34
65290;BMP180;51893;59.754;10.110;2022-10-26T05:45:53;101055.20;;;6.40
65290;BMP180;51893;59.754;10.110;2022-10-26T05:48:24;101058.00;;;6.30
65290;BMP180;51893;59.754;10.110;2022-10-26T05:50:53;101060.80;;;6.30
65290;BMP180;51893;59.754;10.110;2022-10-26T05:53:20;101064.60;;;6.30
65290;BMP180;51893;59.754;10.110;2022-10-26T05:55:49;101070.40;;;6.20
65290;BMP180;51893;59.754;10.110;2022-10-26T05:58:19;101072.60;;;6.20
65290;BMP180;51893;59.754;10.110;2022-10-26T06:04:15;101083.20;;;6.14
65290;BMP180;51893;59.754;10.110;2022-10-26T06:06:45;101086.80;;;6.10
65290;BMP180;51893;59.754;10.110;2022-10-26T06:09:14;101089.20;;;6.00
65290;BMP180;51893;59.754;10.110;2022-10-26T06:11:42;101091.60;;;6.00
65290;BMP180;51893;59.754;10.110;2022-10-26T06:14:12;101088.40;;;6.00
65290;BMP180;51893;59.754;10.110;2022-10-26T06:25:54;101097.80;;;5.92
65290;BMP180;51893;59.754;10.110;2022-10-26T06:31:07;101100.60;;;5.90
65290;BMP180;51893;59.754;10.110;2022-10-26T06:33:35;101108.60;;;5.90
65290;BMP180;51893;59.754;10.110;2022-10-26T06:38:40;101119.60;;;5.90
65290;BMP180;51893;59.754;10.110;2022-10-26T06:41:13;101124.40;;;5.90
65290;BMP180;51893;59.754;10.110;2022-10-26T06:43:48;101124.20;;;5.90
65290;BMP180;51893;59.754;10.110;2022-10-26T06:47:05;101127.80;;;5.88
65290;BMP180;51893;59.754;10.110;2022-10-26T06:50:10;101125.00;;;5.80
65290;BMP180;51893;59.754;10.110;2022-10-26T06:55:54;101141.20;;;5.70
65290;BMP180;51893;59.754;10.110;2022-10-26T06:58:51;101143.60;;;5.70
65290;BMP180;51893;59.754;10.110;2022-10-26T07:01:19;101145.60;;;5.70
65290;BMP180;51893;59.754;10.110;2022-10-26T07:03:49;101148.60;;;5.70
65290;BMP180;51893;59.754;10.110;2022-10-26T07:06:17;101150.80;;;5.80
65290;BMP180;51893;59.754;10.110;2022-10-26T07:08:51;101158.80;;;5.80
65290;BMP180;51893;59.754;10.110;2022-10-26T07:11:22;101156.00;;;5.80
65290;BMP180;51893;59.754;10.110;2022-10-26T07:13:50;101157.60;;;5.80
65290;BMP180;51893;59.754;10.110;2022-10-26T07:16:20;101162.80;;;5.80
65290;BMP180;51893;59.754;10.110;2022-10-26T07:18:54;101162.80;;;5.80
65290;BMP180;51893;59.754;10.110;2022-10-26T07:21:24;101162.20;;;5.72
65290;BMP180;51893;59.754;10.110;2022-10-26T07:23:52;101162.80;;;5.80
65290;BMP180;51893;59.754;10.110;2022-10-26T07:26:25;101165.40;;;5.78
65290;BMP180;51893;59.754;10.110;2022-10-26T07:28:55;101165.60;;;5.70
65290;BMP180;51893;59.754;10.110;2022-10-26T07:31:26;101167.00;;;5.60
65290;BMP180;51893;59.754;10.110;2022-10-26T07:33:54;101169.80;;;5.58
65290;BMP180;51893;59.754;10.110;2022-10-26T07:36:28;101171.80;;;5.56
65290;BMP180;51893;59.754;10.110;2022-10-26T07:38:56;101179.60;;;5.58
65290;BMP180;51893;59.754;10.110;2022-10-26T07:41:27;101184.40;;;5.60
65290;BMP180;51893;59.754;10.110;2022-10-26T07:43:56;101187.60;;;5.64
65290;BMP180;51893;59.754;10.110;2022-10-26T07:46:24;101191.60;;;5.70
65290;BMP180;51893;59.754;10.110;2022-10-26T07:48:53;101192.00;;;5.80
65290;BMP180;51893;59.754;10.110;2022-10-26T07:51:20;101201.80;;;5.70
65290;BMP180;51893;59.754;10.110;2022-10-26T07:53:50;101204.60;;;5.80
65290;BMP180;51893;59.754;10.110;2022-10-26T07:56:19;101206.00;;;5.80
65290;BMP180;51893;59.754;10.110;2022-10-26T07:58:51;101213.20;;;5.80
65290;BMP180;51893;59.754;10.110;2022-10-26T08:01:22;101209.80;;;5.70
65290;BMP180;51893;59.754;10.110;2022-10-26T08:03:53;101216.00;;;5.80
65290;BMP180;51893;59.754;10.110;2022-10-26T08:06:22;101220.80;;;5.80
65290;BMP180;51893;59.754;10.110;2022-10-26T08:08:50;101221.40;;;5.80
65290;BMP180;51893;59.754;10.110;2022-10-26T08:11:18;101219.20;;;5.80
65290;BMP180;51893;59.754;10.110;2022-10-26T08:13:51;101224.60;;;5.80
65290;BMP180;51893;59.754;10.110;2022-10-26T08:16:22;101227.00;;;5.80
65290;BMP180;51893;59.754;10.110;2022-10-26T08:18:52;101222.80;;;5.70
65290;BMP180;51893;59.754;10.110;2022-10-26T08:21:20;101217.00;;;5.70
65290;BMP180;51893;59.754;10.110;2022-10-26T08:24:07;101219.40;;;5.66
65290;BMP180;51893;59.754;10.110;2022-10-26T08:26:36;101222.80;;;5.60
65290;BMP180;51893;59.754;10.110;2022-10-26T08:29:04;101218.80;;;5.52
65290;BMP180;51893;59.754;10.110;2022-10-26T08:31:36;101222.40;;;5.50
65290;BMP180;51893;59.754;10.110;2022-10-26T08:34:04;101228.00;;;5.42
65290;BMP180;51893;59.754;10.110;2022-10-26T08:36:32;101225.20;;;5.40
65290;BMP180;51893;59.754;10.110;2022-10-26T08:39:01;101228.00;;;5.50
65290;BMP180;51893;59.754;10.110;2022-10-26T08:41:44;101227.40;;;5.50
65290;BMP180;51893;59.754;10.110;2022-10-26T08:44:35;101228.60;;;5.50
65290;BMP180;51893;59.754;10.110;2022-10-26T08:47:22;101235.40;;;5.50
65290;BMP180;51893;59.754;10.110;2022-10-26T08:50:02;101234.60;;;5.50
65290;BMP180;51893;59.754;10.110;2022-10-26T08:52:47;101241.80;;;5.54
65290;BMP180;51893;59.754;10.110;2022-10-26T08:55:23;101246.20;;;5.50
65290;BMP180;51893;59.754;10.110;2022-10-26T08:57:54;101246.20;;;5.50
65290;BMP180;51893;59.754;10.110;2022-10-26T09:00:25;101252.60;;;5.50
65290;BMP180;51893;59.754;10.110;2022-10-26T09:02:55;101247.40;;;5.60
65290;BMP180;51893;59.754;10.110;2022-10-26T09:05:33;101241.40;;;5.70
65290;BMP180;51893;59.754;10.110;2022-10-26T09:14:35;101238.60;;;5.70
65290;BMP180;51893;59.754;10.110;2022-10-26T09:24:24;101241.00;;;5.76
65290;BMP180;51893;59.754;10.110;2022-10-26T09:27:28;101251.20;;;5.80
65290;BMP180;51893;59.754;10.110;2022-10-26T09:30:03;101254.40;;;5.80
65290;BMP180;51893;59.754;10.110;2022-10-26T09:32:45;101258.40;;;5.80
65290;BMP180;51893;59.754;10.110;2022-10-26T09:35:48;101262.40;;;5.80
65290;BMP180;51893;59.754;10.110;2022-10-26T09:44:04;101270.80;;;5.90
65290;BMP180;51893;59.754;10.110;2022-10-26T09:46:47;101268.00;;;6.00
65290;BMP180;51893;59.754;10.110;2022-10-26T09:49:25;101267.40;;;6.00
65290;BMP180;51893;59.754;10.110;2022-10-26T09:51:58;101269.00;;;6.00
65290;BMP180;51893;59.754;10.110;2022-10-26T09:54:26;101269.60;;;5.90
65290;BMP180;51893;59.754;10.110;2022-10-26T09:56:58;101270.80;;;5.90
65290;BMP180;51893;59.754;10.110;2022-10-26T09:59:33;101275.00;;;5.92
65290;BMP180;51893;59.754;10.110;2022-10-26T10:02:31;101275.80;;;6.00
65290;BMP180;51893;59.754;10.110;2022-10-26T10:05:16;101282.00;;;6.00
65290;BMP180;51893;59.754;10.110;2022-10-26T10:08:25;101296.20;;;6.00
65290;BMP180;51893;59.754;10.110;2022-10-26T10:13:37;101289.00;;;5.90
65290;BMP180;51893;59.754;10.110;2022-10-26T10:16:21;101290.80;;;5.90
65290;BMP180;51893;59.754;10.110;2022-10-26T10:18:59;101295.20;;;6.00
65290;BMP180;51893;59.754;10.110;2022-10-26T10:21:47;101294.60;;;6.00
65290;BMP180;51893;59.754;10.110;2022-10-26T10:24:24;101292.00;;;6.10
65290;BMP180;51893;59.754;10.110;2022-10-26T10:27:20;101288.20;;;6.10
65290;BMP180;51893;59.754;10.110;2022-10-26T10:29:53;101296.40;;;6.10
65290;BMP180;51893;59.754;10.110;2022-10-26T10:32:31;101296.80;;;6.10
65290;BMP180;51893;59.754;10.110;2022-10-26T10:35:23;101295.80;;;6.16
65290;BMP180;51893;59.754;10.110;2022-10-26T10:37:54;101293.60;;;6.28
65290;BMP180;51893;59.754;10.110;2022-10-26T10:40:30;101295.00;;;6.30
65290;BMP180;51893;59.754;10.110;2022-10-26T10:43:12;101295.40;;;6.40
65290;BMP180;51893;59.754;10.110;2022-10-26T10:45:48;101298.40;;;6.36
65290;BMP180;51893;59.754;10.110;2022-10-26T10:48:20;101299.60;;;6.40
65290;BMP180;51893;59.754;10.110;2022-10-26T10:51:00;101306.80;;;6.40
65290;BMP180;51893;59.754;10.110;2022-10-26T10:53:48;101306.60;;;6.40
65290;BMP180;51893;59.754;10.110;2022-10-26T10:56:51;101304.80;;;6.42
65290;BMP180;51893;59.754;10.110;2022-10-26T11:10:53;101317.40;;;6.60
65290;BMP180;51893;59.754;10.110;2022-10-26T11:13:37;101307.60;;;6.70
65290;BMP180;51893;59.754;10.110;2022-10-26T11:16:33;101309.00;;;6.74
65290;BMP180;51893;59.754;10.110;2022-10-26T11:19:37;101310.80;;;6.80
65290;BMP180;51893;59.754;10.110;2022-10-26T11:22:11;101316.40;;;6.90
65290;BMP180;51893;59.754;10.110;2022-10-26T11:24:55;101316.40;;;6.90
65290;BMP180;51893;59.754;10.110;2022-10-26T11:27:52;101315.80;;;6.90
65290;BMP180;51893;59.754;10.110;2022-10-26T11:30:24;101318.00;;;6.90
65290;BMP180;51893;59.754;10.110;2022-10-26T11:33:17;101311.20;;;6.98
65290;BMP180;51893;59.754;10.110;2022-10-26T11:36:19;101315.00;;;7.00
65290;BMP180;51893;59.754;10.110;2022-10-26T11:39:10;101315.20;;;7.10
65290;BMP180;51893;59.754;10.110;2022-10-26T11:54:38;101333.80;;;7.18
65290;BMP180;51893;59.754;10.110;2022-10-26T11:57:10;101333.80;;;7.20
65290;BMP180;51893;59.754;10.110;2022-10-26T12:00:21;101332.80;;;7.20
65290;BMP180;51893;59.754;10.110;2022-10-26T12:02:54;101335.60;;;7.20
65290;BMP180;51893;59.754;10.110;2022-10-26T12:11:49;101330.20;;;7.20
65290;BMP180;51893;59.754;10.110;2022-10-26T12:14:42;101334.60;;;7.20
65290;BMP180;51893;59.754;10.110;2022-10-26T12:17:27;101336.80;;;7.30
65290;BMP180;51893;59.754;10.110;2022-10-26T12:23:02;101325.60;;;7.30
65290;BMP180;51893;59.754;10.110;2022-10-26T12:25:30;101327.80;;;7.30
65290;BMP180;51893;59.754;10.110;2022-10-26T12:28:01;101324.00;;;7.40
65290;BMP180;51893;59.754;10.110;2022-10-26T12:30:33;101325.60;;;7.32
65290;BMP180;51893;59.754;10.110;2022-10-26T12:33:29;101333.40;;;7.30
65290;BMP180;51893;59.754;10.110;2022-10-26T12:36:00;101335.20;;;7.40
65290;BMP180;51893;59.754;10.110;2022-10-26T12:41:22;101343.60;;;7.50
65290;BMP180;51893;59.754;10.110;2022-10-26T12:43:55;101342.80;;;7.60
65290;BMP180;51893;59.754;10.110;2022-10-26T12:48:52;101342.80;;;7.62
65290;BMP180;51893;59.754;10.110;2022-10-26T12:54:31;101345.80;;;7.70
65290;BMP180;51893;59.754;10.110;2022-10-26T12:57:33;101347.80;;;7.72
65290;BMP180;51893;59.754;10.110;2022-10-26T13:00:12;101349.00;;;7.80
65290;BMP180;51893;59.754;10.110;2022-10-26T13:08:47;101366.40;;;7.80
65290;BMP180;51893;59.754;10.110;2022-10-26T13:11:33;101370.40;;;7.80
65290;BMP180;51893;59.754;10.110;2022-10-26T13:14:14;101370.60;;;7.80
65290;BMP180;51893;59.754;10.110;2022-10-26T13:16:45;101368.80;;;7.80
65290;BMP180;51893;59.754;10.110;2022-10-26T13:19:26;101375.40;;;7.74
65290;BMP180;51893;59.754;10.110;2022-10-26T13:21:59;101375.20;;;7.80
65290;BMP180;51893;59.754;10.110;2022-10-26T13:24:31;101369.00;;;7.78
65290;BMP180;51893;59.754;10.110;2022-10-26T13:32:40;101364.40;;;7.70
65290;BMP180;51893;59.754;10.110;2022-10-26T13:35:13;101367.00;;;7.70
65290;BMP180;51893;59.754;10.110;2022-10-26T13:37:47;101362.00;;;7.68
65290;BMP180;51893;59.754;10.110;2022-10-26T13:40:24;101359.80;;;7.60
65290;BMP180;51893;59.754;10.110;2022-10-26T13:43:02;101357.80;;;7.60
65290;BMP180;51893;59.754;10.110;2022-10-26T13:45:46;101357.60;;;7.50
65290;BMP180;51893;59.754;10.110;2022-10-26T13:48:26;101358.40;;;7.50
65290;BMP180;51893;59.754;10.110;2022-10-26T13:51:18;101354.80;;;7.50
65290;BMP180;51893;59.754;10.110;2022-10-26T13:54:06;101355.80;;;7.50
65290;BMP180;51893;59.754;10.110;2022-10-26T13:57:00;101358.00;;;7.50
65290;BMP180;51893;59.754;10.110;2022-10-26T13:59:32;101365.20;;;7.50
65290;BMP180;51893;59.754;10.110;2022-10-26T14:02:14;101363.40;;;7.50
65290;BMP180;51893;59.754;10.110;2022-10-26T14:05:14;101348.00;;;7.50
65290;BMP180;51893;59.754;10.110;2022-10-26T14:07:54;101356.40;;;7.50
65290;BMP180;51893;59.754;10.110;2022-10-26T14:10:33;101363.00;;;7.50
65290;BMP180;51893;59.754;10.110;2022-10-26T14:13:14;101361.00;;;7.50
65290;BMP180;51893;59.754;10.110;2022-10-26T14:16:08;101365.20;;;7.50
65290;BMP180;51893;59.754;10.110;2022-10-26T14:18:43;101368.00;;;7.40
65290;BMP180;51893;59.754;10.110;2022-10-26T14:21:19;101358.60;;;7.40
65290;BMP180;51893;59.754;10.110;2022-10-26T14:23:59;101371.60;;;7.42
65290;BMP180;51893;59.754;10.110;2022-10-26T14:26:39;101368.80;;;7.44
65290;BMP180;51893;59.754;10.110;2022-10-26T14:29:20;101374.60;;;7.40
65290;BMP180;51893;59.754;10.110;2022-10-26T14:31:50;101375.40;;;7.40
65290;BMP180;51893;59.754;10.110;2022-10-26T14:34:19;101376.40;;;7.40
65290;BMP180;51893;59.754;10.110;2022-10-26T14:36:50;101375.20;;;7.40
65290;BMP180;51893;59.754;10.110;2022-10-26T14:39:38;101373.60;;;7.40
65290;BMP180;51893;59.754;10.110;2022-10-26T14:42:37;101374.40;;;7.40
65290;BMP180;51893;59.754;10.110;2022-10-26T14:45:33;101374.80;;;7.40
65290;BMP180;51893;59.754;10.110;2022-10-26T14:48:53;101368.00;;;7.40
65290;BMP180;51893;59.754;10.110;2022-10-26T14:51:33;101364.20;;;7.44
65290;BMP180;51893;59.754;10.110;2022-10-26T14:54:03;101369.00;;;7.50
65290;BMP180;51893;59.754;10.110;2022-10-26T14:56:43;101379.20;;;7.50
65290;BMP180;51893;59.754;10.110;2022-10-26T15:01:58;101379.60;;;7.50
65290;BMP180;51893;59.754;10.110;2022-10-26T15:04:41;101386.00;;;7.50
65290;BMP180;51893;59.754;10.110;2022-10-26T15:07:17;101386.40;;;7.50
65290;BMP180;51893;59.754;10.110;2022-10-26T15:09:51;101385.20;;;7.50
65290;BMP180;51893;59.754;10.110;2022-10-26T15:12:34;101385.80;;;7.48
65290;BMP180;51893;59.754;10.110;2022-10-26T15:15:18;101383.20;;;7.48
65290;BMP180;51893;59.754;10.110;2022-10-26T15:17:55;101389.00;;;7.50
65290;BMP180;51893;59.754;10.110;2022-10-26T15:20:28;101385.60;;;7.50
65290;BMP180;51893;59.754;10.110;2022-10-26T15:23:00;101384.80;;;7.50
65290;BMP180;51893;59.754;10.110;2022-10-26T15:25:38;101380.80;;;7.50
65290;BMP180;51893;59.754;10.110;2022-10-26T15:28:28;101383.60;;;7.50
65290;BMP180;51893;59.754;10.110;2022-10-26T15:31:31;101381.40;;;7.50
65290;BMP180;51893;59.754;10.110;2022-10-26T15:36:32;101380.40;;;7.60
65290;BMP180;51893;59.754;10.110;2022-10-26T15:39:05;101375.40;;;7.50
65290;BMP180;51893;59.754;10.110;2022-10-26T15:41:46;101374.80;;;7.50
65290;BMP180;51893;59.754;10.110;2022-10-26T15:44:21;101373.80;;;7.54
65290;BMP180;51893;59.754;10.110;2022-10-26T15:46:50;101372.80;;;7.60
65290;BMP180;51893;59.754;10.110;2022-10-26T15:49:21;101364.00;;;7.60
65290;BMP180;51893;59.754;10.110;2022-10-26T15:51:50;101364.20;;;7.60
65290;BMP180;51893;59.754;10.110;2022-10-26T15:54:18;101366.40;;;7.60
65290;BMP180;51893;59.754;10.110;2022-10-26T15:56:48;101361.40;;;7.60
65290;BMP180;51893;59.754;10.110;2022-10-26T15:59:17;101366.20;;;7.60
65290;BMP180;51893;59.754;10.110;2022-10-26T16:01:48;101368.40;;;7.60
65290;BMP180;51893;59.754;10.110;2022-10-26T16:04:20;101365.80;;;7.60
65290;BMP180;51893;59.754;10.110;2022-10-26T16:06:51;101363.20;;;7.60
65290;BMP180;51893;59.754;10.110;2022-10-26T16:09:18;101354.00;;;7.70
65290;BMP180;51893;59.754;10.110;2022-10-26T16:11:49;101345.20;;;7.70
65290;BMP180;51893;59.754;10.110;2022-10-26T16:14:18;101348.60;;;7.70
65290;BMP180;51893;59.754;10.110;2022-10-26T16:16:49;101343.60;;;7.70
65290;BMP180;51893;59.754;10.110;2022-10-26T16:19:16;101346.80;;;7.70
65290;BMP180;51893;59.754;10.110;2022-10-26T16:22:00;101345.80;;;7.70
65290;BMP180;51893;59.754;10.110;2022-10-26T16:24:32;101349.80;;;7.64
65290;BMP180;51893;59.754;10.110;2022-10-26T16:27:03;101353.80;;;7.60
65290;BMP180;51893;59.754;10.110;2022-10-26T16:29:31;101353.20;;;7.60
65290;BMP180;51893;59.754;10.110;2022-10-26T16:32:00;101350.20;;;7.60
65290;BMP180;51893;59.754;10.110;2022-10-26T16:34:28;101351.60;;;7.60
65290;BMP180;51893;59.754;10.110;2022-10-26T16:36:57;101364.60;;;7.60
65290;BMP180;51893;59.754;10.110;2022-10-26T16:39:26;101364.20;;;7.60
65290;BMP180;51893;59.754;10.110;2022-10-26T16:41:57;101379.60;;;7.60
65290;BMP180;51893;59.754;10.110;2022-10-26T16:44:28;101388.80;;;7.60
65290;BMP180;51893;59.754;10.110;2022-10-26T16:46:56;101383.20;;;7.60
65290;BMP180;51893;59.754;10.110;2022-10-26T16:49:26;101368.40;;;7.60